createdAt,value
2022-09-17T00:01:40.229Z,10.53
2022-09-17T00:04:11.138Z,7.77
2022-09-17T00:06:38.650Z,8.23
2022-09-17T00:09:07.674Z,9.70
2022-09-17T00:11:39.297Z,10.17
2022-09-17T00:14:09.189Z,7.20
2022-09-17T00:16:39.397Z,6.93
2022-09-17T00:19:10.060Z,7.40
2022-09-17T00:21:37.531Z,7.70
2022-09-17T00:24:06.696Z,7.90
2022-09-17T00:26:36.635Z,8.00
2022-09-17T00:29:04.841Z,9.60
2022-09-17T00:31:33.030Z,11.53
2022-09-17T00:34:01.867Z,12.23
2022-09-17T00:36:29.490Z,8.67
2022-09-17T00:38:59.282Z,12.03
2022-09-17T00:41:28.205Z,9.77
2022-09-17T00:43:59.462Z,9.87
2022-09-17T00:46:32.767Z,12.77
2022-09-17T00:49:04.231Z,12.57
2022-09-17T00:51:35.685Z,10.47
2022-09-17T00:54:04.986Z,12.07
2022-09-17T00:56:34.109Z,12.97
2022-09-17T00:59:03.745Z,9.43
2022-09-17T01:01:31.596Z,13.53
2022-09-17T01:03:59.326Z,11.13
2022-09-17T01:06:33.420Z,15.90
2022-09-17T01:09:11.521Z,15.03
2022-09-17T01:11:53.878Z,13.90
2022-09-17T01:14:35.848Z,15.93
2022-09-17T01:17:09.112Z,14.43
2022-09-17T01:20:05.129Z,13.23
2022-09-17T01:22:34.998Z,17.23
2022-09-17T01:25:17.971Z,15.00
2022-09-17T01:28:12.386Z,14.87
2022-09-17T01:30:55.660Z,17.67
2022-09-17T01:33:28.667Z,15.53
2022-09-17T01:36:03.769Z,24.07
2022-09-17T01:38:34.473Z,20.67
2022-09-17T01:41:07.688Z,21.10
2022-09-17T01:43:39.241Z,16.57
2022-09-17T01:46:11.268Z,19.70
2022-09-17T01:48:42.950Z,16.77
2022-09-17T01:51:12.687Z,20.20
2022-09-17T01:53:44.394Z,15.13
2022-09-17T01:56:16.298Z,18.57
2022-09-17T01:58:46.091Z,13.77
2022-09-17T02:01:17.389Z,23.00
2022-09-17T02:03:49.267Z,19.73
2022-09-17T02:06:19.205Z,20.60
2022-09-17T02:08:49.516Z,23.63
2022-09-17T02:11:17.279Z,15.80
2022-09-17T02:13:46.109Z,23.03
2022-09-17T02:16:17.936Z,14.27
2022-09-17T02:18:47.895Z,16.70
2022-09-17T02:21:18.473Z,26.20
2022-09-17T02:23:54.171Z,17.23
2022-09-17T02:26:22.128Z,15.13
2022-09-17T02:28:52.679Z,26.27
2022-09-17T02:31:22.708Z,21.20
2022-09-17T02:33:53.915Z,23.03
2022-09-17T02:36:23.710Z,20.40
2022-09-17T02:38:59.017Z,24.10
2022-09-17T02:41:32.886Z,21.67
2022-09-17T02:44:11.803Z,25.50
2022-09-17T02:46:52.010Z,20.07
2022-09-17T02:49:28.686Z,21.83
2022-09-17T02:52:04.451Z,28.00
2022-09-17T02:54:36.277Z,21.23
2022-09-17T02:57:10.137Z,20.77
2022-09-17T02:59:42.996Z,21.20
2022-09-17T03:02:18.387Z,23.33
2022-09-17T03:04:47.351Z,19.33
2022-09-17T03:07:15.046Z,21.63
2022-09-17T03:09:43.330Z,25.47
2022-09-17T03:12:11.237Z,22.63
2022-09-17T03:14:38.651Z,15.37
2022-09-17T03:17:06.205Z,25.50
2022-09-17T03:19:35.016Z,19.27
2022-09-17T03:22:02.513Z,33.30
2022-09-17T03:24:29.961Z,23.67
2022-09-17T03:26:57.354Z,21.47
2022-09-17T03:29:25.441Z,17.67
2022-09-17T03:31:52.943Z,24.47
2022-09-17T03:34:20.873Z,21.17
2022-09-17T03:36:49.653Z,22.63
2022-09-17T03:39:17.110Z,18.33
2022-09-17T03:41:44.565Z,24.50
2022-09-17T03:44:12.081Z,24.93
2022-09-17T03:46:40.381Z,18.77
2022-09-17T03:49:08.910Z,26.70
2022-09-17T03:51:36.471Z,17.10
2022-09-17T03:54:05.250Z,17.83
2022-09-17T03:56:32.649Z,22.70
2022-09-17T03:59:00.296Z,24.03
2022-09-17T04:01:28.683Z,20.73
2022-09-17T04:03:56.485Z,20.57
2022-09-17T04:06:23.990Z,23.70
2022-09-17T04:08:51.506Z,22.77
2022-09-17T04:11:20.294Z,20.97
2022-09-17T04:13:47.785Z,16.30
2022-09-17T04:16:15.983Z,19.50
2022-09-17T04:18:43.522Z,20.53
2022-09-17T04:21:10.973Z,20.30
2022-09-17T04:23:38.397Z,18.10
2022-09-17T04:26:06.061Z,17.10
2022-09-17T04:28:34.822Z,24.53
2022-09-17T04:31:02.355Z,20.60
2022-09-17T04:33:29.809Z,23.93
2022-09-17T04:35:57.204Z,16.80
2022-09-17T04:38:24.702Z,24.40
2022-09-17T04:40:52.170Z,16.20
2022-09-17T04:43:19.603Z,22.40
2022-09-17T04:45:49.231Z,23.47
2022-09-17T04:48:16.718Z,20.27
2022-09-17T04:50:44.163Z,20.77
2022-09-17T04:53:12.457Z,18.57
2022-09-17T04:55:39.887Z,18.47
2022-09-17T04:58:07.311Z,20.17
2022-09-17T05:00:35.249Z,17.23
2022-09-17T05:03:04.573Z,19.17
2022-09-17T05:05:32.004Z,18.77
2022-09-17T05:07:59.443Z,24.07
2022-09-17T05:10:27.066Z,19.30
2022-09-17T05:12:56.051Z,25.27
2022-09-17T05:15:24.713Z,18.27
2022-09-17T05:17:52.141Z,22.17
2022-09-17T05:20:20.957Z,17.43
2022-09-17T05:22:49.659Z,26.10
2022-09-17T05:25:18.636Z,20.07
2022-09-17T05:27:46.102Z,26.70
2022-09-17T05:30:13.976Z,17.87
2022-09-17T05:32:41.598Z,21.03
2022-09-17T05:35:10.251Z,15.23
2022-09-17T05:37:39.277Z,19.97
2022-09-17T05:40:08.747Z,18.60
2022-09-17T05:42:36.371Z,17.27
2022-09-17T05:45:04.369Z,18.50
2022-09-17T05:47:31.879Z,16.67
2022-09-17T05:49:59.686Z,19.27
2022-09-17T05:52:28.727Z,27.17
2022-09-17T05:54:57.595Z,22.87
2022-09-17T05:57:25.594Z,19.90
2022-09-17T05:59:53.021Z,23.60
2022-09-17T06:02:20.542Z,20.70
2022-09-17T06:04:48.049Z,22.30
2022-09-17T06:07:15.499Z,16.67
2022-09-17T06:09:42.921Z,21.40
2022-09-17T06:12:11.725Z,18.50
2022-09-17T06:14:39.149Z,16.63
2022-09-17T06:17:06.569Z,16.97
2022-09-17T06:19:33.997Z,16.53
2022-09-17T06:22:01.704Z,19.87
2022-09-17T06:24:29.246Z,21.57
2022-09-17T06:26:56.692Z,15.07
2022-09-17T06:29:25.520Z,22.23
2022-09-17T06:31:54.019Z,22.73
2022-09-17T06:34:21.562Z,16.87
2022-09-17T06:36:49.742Z,18.37
2022-09-17T06:39:17.338Z,21.33
2022-09-17T06:41:45.557Z,21.13
2022-09-17T06:44:13.034Z,22.07
2022-09-17T06:46:42.939Z,21.53
2022-09-17T06:49:11.586Z,17.30
2022-09-17T06:51:38.986Z,17.27
2022-09-17T06:54:06.527Z,17.77
2022-09-17T06:56:34.512Z,22.53
2022-09-17T06:59:02.217Z,17.83
2022-09-17T07:01:29.938Z,17.67
2022-09-17T07:03:59.952Z,18.50
2022-09-17T07:06:27.413Z,21.20
2022-09-17T07:08:54.928Z,19.13
2022-09-17T07:11:22.365Z,18.20
2022-09-17T07:13:49.854Z,17.67
2022-09-17T07:16:17.479Z,17.73
2022-09-17T07:18:45.057Z,17.10
2022-09-17T07:21:14.512Z,16.17
2022-09-17T07:23:42.859Z,16.30
2022-09-17T07:26:14.672Z,16.97
2022-09-17T07:28:43.596Z,17.80
2022-09-17T07:31:16.139Z,17.47
2022-09-17T07:33:45.095Z,18.23
2022-09-17T07:36:15.451Z,17.93
2022-09-17T07:38:42.965Z,25.07
2022-09-17T07:41:13.343Z,18.37
2022-09-17T07:43:40.831Z,19.27
2022-09-17T07:46:10.145Z,19.90
2022-09-17T07:48:37.846Z,19.30
2022-09-17T07:51:05.541Z,19.40
2022-09-17T07:53:34.297Z,19.30
2022-09-17T07:56:02.714Z,21.37
2022-09-17T07:58:31.473Z,20.53
2022-09-17T08:01:03.040Z,19.50
2022-09-17T08:03:30.571Z,19.53
2022-09-17T08:06:03.858Z,20.67
2022-09-17T08:08:34.023Z,20.13
2022-09-17T08:11:02.946Z,20.53
2022-09-17T08:13:33.514Z,21.47
2022-09-17T08:16:01.773Z,20.10
2022-09-17T08:18:29.885Z,22.30
2022-09-17T08:20:58.090Z,22.33
2022-09-17T08:23:25.704Z,20.47
2022-09-17T08:25:55.381Z,20.43
2022-09-17T08:28:22.915Z,23.67
2022-09-17T08:30:50.438Z,21.40
2022-09-17T08:33:18.150Z,24.83
2022-09-17T08:35:52.077Z,21.40
2022-09-17T08:38:19.728Z,21.33
2022-09-17T08:40:57.404Z,22.47
2022-09-17T08:43:25.899Z,24.30
2022-09-17T08:45:54.939Z,21.13
2022-09-17T08:48:22.899Z,20.73
2022-09-17T08:50:50.851Z,21.67
2022-09-17T08:53:34.947Z,21.20
2022-09-17T08:56:09.516Z,25.37
2022-09-17T08:58:58.726Z,21.53
2022-09-17T09:01:35.658Z,22.30
2022-09-17T09:04:31.126Z,22.37
2022-09-17T09:07:02.482Z,22.30
2022-09-17T09:09:34.581Z,22.40
2022-09-17T09:12:06.527Z,21.70
2022-09-17T09:14:37.157Z,21.63
2022-09-17T09:17:09.017Z,22.43
2022-09-17T09:19:45.013Z,22.47
2022-09-17T09:22:24.394Z,22.93
2022-09-17T09:25:00.358Z,22.73
2022-09-17T09:27:29.879Z,22.90
2022-09-17T09:30:03.840Z,22.87
2022-09-17T09:32:45.259Z,23.50
2022-09-17T09:35:18.849Z,23.63
2022-09-17T09:37:53.554Z,23.13
2022-09-17T09:40:27.177Z,22.00
2022-09-17T09:42:57.467Z,21.70
2022-09-17T09:45:33.450Z,21.40
2022-09-17T09:48:04.511Z,22.50
2022-09-17T09:51:04.719Z,20.90
2022-09-17T09:53:32.601Z,21.53
2022-09-17T09:56:07.409Z,21.10
2022-09-17T09:58:38.411Z,21.90
2022-09-17T10:01:12.522Z,22.00
2022-09-17T10:03:45.869Z,21.77
2022-09-17T10:06:14.448Z,21.57
2022-09-17T10:08:43.610Z,21.77
2022-09-17T10:11:21.526Z,21.93
2022-09-17T10:13:50.459Z,22.50
2022-09-17T10:16:21.184Z,22.37
2022-09-17T10:18:49.508Z,21.90
2022-09-17T10:21:20.959Z,21.50
2022-09-17T10:23:48.706Z,21.67
2022-09-17T10:26:22.833Z,21.50
2022-09-17T10:28:52.824Z,21.73
2022-09-17T10:31:20.854Z,21.77
2022-09-17T10:33:57.482Z,21.63
2022-09-17T10:36:42.192Z,22.17
2022-09-17T10:39:21.099Z,21.40
2022-09-17T10:41:54.886Z,21.27
2022-09-17T10:44:25.334Z,20.97
2022-09-17T10:46:53.391Z,21.07
2022-09-17T10:49:32.451Z,21.67
2022-09-17T10:52:12.461Z,21.93
2022-09-17T10:55:06.143Z,21.27
2022-09-17T10:57:55.074Z,21.53
2022-09-17T11:00:24.589Z,20.77
2022-09-17T11:03:24.397Z,21.33
2022-09-17T11:06:15.506Z,21.60
2022-09-17T11:08:49.631Z,21.40
2022-09-17T11:11:19.988Z,20.97
2022-09-17T11:13:53.211Z,29.20
2022-09-17T11:16:35.531Z,27.63
2022-09-17T11:19:11.987Z,24.90
2022-09-17T11:21:46.663Z,24.77
2022-09-17T11:24:48.269Z,24.37
2022-09-17T11:27:35.719Z,22.27
2022-09-17T11:30:06.168Z,23.20
2022-09-17T11:33:03.938Z,20.43
2022-09-17T11:35:33.445Z,19.50
2022-09-17T11:38:04.969Z,19.60
2022-09-17T11:40:37.714Z,18.97
2022-09-17T11:43:08.447Z,19.87
2022-09-17T11:45:39.376Z,20.10
2022-09-17T11:48:12.537Z,20.20
2022-09-17T11:50:43.612Z,20.30
2022-09-17T11:53:16.572Z,21.87
2022-09-17T11:55:48.450Z,21.40
2022-09-17T11:58:20.625Z,21.27
2022-09-17T12:00:52.223Z,21.50
2022-09-17T12:03:26.843Z,21.17
2022-09-17T12:05:56.369Z,21.87
2022-09-17T12:08:27.157Z,20.97
2022-09-17T12:10:59.921Z,21.30
2022-09-17T12:13:32.153Z,21.07
2022-09-17T12:16:10.757Z,21.47
2022-09-17T12:18:47.926Z,21.80
2022-09-17T12:21:18.809Z,21.77
2022-09-17T12:23:49.391Z,21.47
2022-09-17T12:26:35.297Z,21.17
2022-09-17T12:29:06.884Z,21.40
2022-09-17T12:31:44.520Z,20.93
2022-09-17T12:34:23.732Z,21.93
2022-09-17T12:36:52.702Z,21.33
2022-09-17T12:39:51.319Z,21.70
2022-09-17T12:42:31.204Z,21.37
2022-09-17T12:45:17.018Z,21.10
2022-09-17T12:48:22.700Z,21.40
2022-09-17T12:50:59.761Z,21.03
2022-09-17T12:53:30.561Z,20.90
2022-09-17T12:56:07.216Z,21.27
2022-09-17T12:58:44.263Z,21.63
2022-09-17T13:01:15.280Z,21.40
2022-09-17T13:03:45.630Z,22.20
2022-09-17T13:06:36.133Z,21.90
2022-09-17T13:09:11.366Z,21.33
2022-09-17T13:12:07.726Z,22.33
2022-09-17T13:14:51.742Z,21.87
2022-09-17T13:17:23.989Z,21.87
2022-09-17T13:20:00.441Z,21.60
2022-09-17T13:22:33.412Z,21.70
2022-09-17T13:25:06.577Z,21.37
2022-09-17T13:27:38.597Z,22.30
2022-09-17T13:30:07.681Z,21.20
2022-09-17T13:32:55.031Z,21.67
2022-09-17T13:35:50.812Z,20.90
2022-09-17T13:38:23.796Z,21.00
2022-09-17T13:40:52.093Z,20.67
2022-09-17T13:43:23.970Z,21.17
2022-09-17T13:46:12.596Z,21.27
2022-09-17T13:49:01.954Z,20.90
2022-09-17T13:51:59.385Z,21.37
2022-09-17T13:54:38.792Z,20.50
2022-09-17T13:57:14.141Z,20.80
2022-09-17T13:59:54.805Z,20.20
2022-09-17T14:02:36.566Z,19.87
2022-09-17T14:05:34.257Z,19.87
2022-09-17T14:08:30.418Z,20.87
2022-09-17T14:11:02.542Z,20.33
2022-09-17T14:13:42.982Z,19.90
2022-09-17T14:16:45.877Z,19.90
2022-09-17T14:19:30.515Z,20.00
2022-09-17T14:22:03.693Z,20.50
2022-09-17T14:24:36.252Z,20.83
2022-09-17T14:27:27.199Z,20.50
2022-09-17T14:30:05.303Z,21.07
2022-09-17T14:32:39.402Z,20.87
2022-09-17T14:35:19.905Z,21.00
2022-09-17T14:37:51.953Z,21.23
2022-09-17T14:40:21.002Z,21.10
2022-09-17T14:42:55.053Z,21.27
2022-09-17T14:45:25.098Z,21.40
2022-09-17T14:48:21.087Z,21.30
2022-09-17T14:50:48.670Z,20.90
2022-09-17T14:53:18.830Z,20.70
2022-09-17T14:55:47.690Z,21.20
2022-09-17T14:58:32.269Z,21.50
2022-09-17T15:00:59.945Z,20.63
2022-09-17T15:03:27.656Z,21.27
2022-09-17T15:05:55.429Z,20.53
2022-09-17T15:08:24.433Z,20.30
2022-09-17T15:10:54.318Z,20.33
2022-09-17T15:13:26.576Z,20.47
2022-09-17T15:15:59.077Z,22.23
2022-09-17T15:18:33.852Z,21.83
2022-09-17T15:21:03.498Z,20.13
2022-09-17T15:23:32.475Z,20.20
2022-09-17T15:26:00.501Z,20.23
2022-09-17T15:28:30.798Z,20.30
2022-09-17T15:30:59.701Z,20.23
2022-09-17T15:33:27.819Z,20.50
2022-09-17T15:36:10.056Z,19.90
2022-09-17T15:38:39.202Z,19.93
2022-09-17T15:41:24.455Z,20.83
2022-09-17T15:43:54.669Z,20.10
2022-09-17T15:46:30.123Z,21.50
2022-09-17T15:48:59.609Z,21.13
2022-09-17T15:51:28.670Z,19.77
2022-09-17T15:53:58.963Z,19.43
2022-09-17T15:56:29.141Z,18.90
2022-09-17T15:59:00.846Z,18.50
2022-09-17T16:01:54.867Z,19.30
2022-09-17T16:04:28.754Z,19.03
2022-09-17T16:06:58.929Z,19.50
2022-09-17T16:09:53.819Z,18.80
2022-09-17T16:12:22.967Z,18.33
2022-09-17T16:14:52.371Z,18.83
2022-09-17T16:17:25.837Z,19.83
2022-09-17T16:19:55.677Z,18.60
2022-09-17T16:22:23.495Z,18.37
2022-09-17T16:24:50.938Z,18.73
2022-09-17T16:27:22.083Z,19.83
2022-09-17T16:29:50.289Z,19.50
2022-09-17T16:32:17.794Z,19.67
2022-09-17T16:34:45.254Z,19.40
2022-09-17T16:37:14.101Z,19.63
2022-09-17T16:39:41.803Z,18.73
2022-09-17T16:42:09.279Z,19.80
2022-09-17T16:44:36.887Z,19.87
2022-09-17T16:47:04.584Z,19.03
2022-09-17T16:49:32.125Z,19.90
2022-09-17T16:51:59.604Z,20.10
2022-09-17T16:54:28.454Z,20.10
2022-09-17T16:56:56.454Z,20.13
2022-09-17T16:59:26.259Z,20.30
2022-09-17T17:01:53.800Z,20.83
2022-09-17T17:04:21.424Z,20.83
2022-09-17T17:06:48.938Z,19.87
2022-09-17T17:09:16.647Z,20.87
2022-09-17T17:11:51.789Z,19.67
2022-09-17T17:14:19.542Z,20.07
2022-09-17T17:16:47.155Z,20.10
2022-09-17T17:19:14.733Z,18.63
2022-09-17T17:21:47.155Z,18.80
2022-09-17T17:24:14.896Z,18.60
2022-09-17T17:26:42.380Z,17.43
2022-09-17T17:29:14.412Z,17.63
2022-09-17T17:31:42.310Z,17.70
2022-09-17T17:34:10.452Z,18.37
2022-09-17T17:36:37.896Z,17.67
2022-09-17T17:39:05.384Z,16.80
2022-09-17T17:41:32.927Z,17.17
2022-09-17T17:44:00.503Z,16.80
2022-09-17T17:46:29.341Z,17.17
2022-09-17T17:48:56.971Z,20.10
2022-09-17T17:51:27.465Z,16.10
2022-09-17T17:53:54.902Z,16.10
2022-09-17T17:56:23.376Z,15.40
2022-09-17T17:58:55.085Z,15.10
2022-09-17T18:01:24.845Z,14.83
2022-09-17T18:03:56.986Z,15.53
2022-09-17T18:06:28.061Z,14.00
2022-09-17T18:08:56.195Z,14.90
2022-09-17T18:11:24.470Z,14.67
2022-09-17T18:13:52.765Z,14.53
2022-09-17T18:16:20.343Z,14.93
2022-09-17T18:18:48.200Z,14.70
2022-09-17T18:21:18.949Z,14.60
2022-09-17T18:23:46.721Z,15.67
2022-09-17T18:26:15.392Z,15.60
2022-09-17T18:28:42.924Z,16.00
2022-09-17T18:31:12.740Z,18.20
2022-09-17T18:33:40.250Z,15.93
2022-09-17T18:36:07.803Z,15.53
2022-09-17T18:38:39.427Z,15.50
2022-09-17T18:41:08.475Z,14.80
2022-09-17T18:43:35.975Z,14.33
2022-09-17T18:46:05.365Z,15.57
2022-09-17T18:48:36.289Z,15.90
2022-09-17T18:51:06.171Z,14.67
2022-09-17T18:53:37.010Z,14.43
2022-09-17T18:56:06.595Z,14.73
2022-09-17T18:58:34.894Z,15.30
2022-09-17T19:01:05.879Z,14.97
2022-09-17T19:03:33.373Z,14.60
2022-09-17T19:06:01.200Z,14.00
2022-09-17T19:08:28.701Z,14.80
2022-09-17T19:10:57.775Z,14.13
2022-09-17T19:13:27.059Z,13.83
2022-09-17T19:15:59.074Z,14.80
2022-09-17T19:18:26.670Z,14.10
2022-09-17T19:21:00.085Z,14.33
2022-09-17T19:23:27.534Z,14.37
2022-09-17T19:25:55.041Z,16.83
2022-09-17T19:28:23.993Z,14.33
2022-09-17T19:30:51.569Z,14.67
2022-09-17T19:33:19.115Z,15.30
2022-09-17T19:35:46.698Z,14.10
2022-09-17T19:38:14.181Z,14.77
2022-09-17T19:40:41.810Z,14.33
2022-09-17T19:43:09.318Z,13.80
2022-09-17T19:45:38.277Z,14.23
2022-09-17T19:48:05.751Z,15.27
2022-09-17T19:50:33.253Z,15.10
2022-09-17T19:53:00.752Z,19.87
2022-09-17T19:55:28.218Z,15.03
2022-09-17T19:57:55.686Z,14.33
2022-09-17T20:00:23.274Z,14.47
2022-09-17T20:02:52.327Z,14.93
2022-09-17T20:05:19.805Z,14.70
2022-09-17T20:07:47.904Z,14.10
2022-09-17T20:10:15.531Z,14.37
2022-09-17T20:12:43.047Z,14.23
2022-09-17T20:15:11.496Z,14.60
2022-09-17T20:17:39.017Z,14.80
2022-09-17T20:20:09.694Z,15.20
2022-09-17T20:22:37.215Z,13.63
2022-09-17T20:25:05.323Z,13.60
2022-09-17T20:27:33.165Z,13.40
2022-09-17T20:30:00.652Z,13.37
2022-09-17T20:32:28.552Z,12.37
2022-09-17T20:34:56.071Z,12.67
2022-09-17T20:38:01.684Z,12.23
2022-09-17T20:40:12.506Z,11.93
2022-09-17T20:42:40.121Z,11.67
2022-09-17T20:45:08.316Z,11.03
2022-09-17T20:47:36.504Z,11.10
2022-09-17T20:50:04.004Z,11.80
2022-09-17T20:52:33.250Z,10.97
2022-09-17T20:55:00.739Z,10.37
2022-09-17T20:57:28.233Z,9.90
2022-09-17T21:00:00.249Z,10.63
2022-09-17T21:02:28.116Z,13.37
2022-09-17T21:04:55.662Z,10.50
2022-09-17T21:07:23.193Z,10.60
2022-09-17T21:09:52.022Z,14.03
2022-09-17T21:12:20.807Z,10.90
2022-09-17T21:14:49.766Z,10.67
2022-09-17T21:17:17.380Z,11.40
2022-09-17T21:19:44.950Z,10.70
2022-09-17T21:22:12.394Z,12.40
2022-09-17T21:24:39.890Z,12.70
2022-09-17T21:27:09.269Z,12.97
2022-09-17T21:29:36.759Z,11.77
2022-09-17T21:32:04.258Z,10.47
2022-09-17T21:34:31.727Z,10.87
2022-09-17T21:36:59.225Z,11.60
2022-09-17T21:39:26.698Z,11.37
2022-09-17T21:41:54.545Z,10.27
2022-09-17T21:44:23.454Z,10.13
2022-09-17T21:46:57.080Z,11.03
2022-09-17T21:49:24.760Z,9.80
2022-09-17T21:51:52.302Z,9.43
2022-09-17T21:54:19.961Z,8.13
2022-09-17T21:56:47.834Z,9.07
2022-09-17T21:59:16.301Z,8.60
2022-09-17T22:01:50.175Z,8.50
2022-09-17T22:04:19.511Z,10.67
2022-09-17T22:06:47.943Z,12.30
2022-09-17T22:09:17.913Z,9.77
2022-09-17T22:11:45.392Z,11.07
2022-09-17T22:14:14.573Z,9.47
2022-09-17T22:16:45.070Z,10.63
2022-09-17T22:19:15.033Z,8.63
2022-09-17T22:21:44.547Z,10.63
2022-09-17T22:24:12.333Z,9.37
2022-09-17T22:26:43.227Z,10.20
2022-09-17T22:29:12.639Z,10.70
2022-09-17T22:31:40.927Z,14.93
2022-09-17T22:34:11.001Z,11.93
2022-09-17T22:36:39.428Z,8.03
2022-09-17T22:39:09.280Z,12.30
2022-09-17T22:41:39.083Z,12.17
2022-09-17T22:44:08.054Z,7.93
2022-09-17T22:46:39.029Z,13.40
2022-09-17T22:49:07.221Z,8.30
2022-09-17T22:51:36.394Z,8.47
2022-09-17T22:54:04.472Z,7.70
2022-09-17T22:56:32.041Z,7.53
2022-09-17T22:58:59.895Z,9.23
2022-09-17T23:01:29.698Z,7.93
2022-09-17T23:03:57.951Z,10.90
2022-09-17T23:06:27.070Z,8.27
2022-09-17T23:08:56.438Z,8.97
2022-09-17T23:11:26.409Z,7.93
2022-09-17T23:13:57.474Z,9.20
2022-09-17T23:16:25.944Z,8.40
2022-09-17T23:18:53.541Z,8.57
2022-09-17T23:21:21.622Z,8.67
2022-09-17T23:23:52.250Z,9.87
2022-09-17T23:26:22.833Z,12.70
2022-09-17T23:28:51.263Z,7.17
2022-09-17T23:31:20.975Z,9.40
2022-09-17T23:33:49.070Z,9.47
2022-09-17T23:36:19.218Z,7.27
2022-09-17T23:38:47.896Z,8.33
2022-09-17T23:41:16.999Z,10.93
2022-09-17T23:43:48.972Z,8.47
2022-09-17T23:46:16.900Z,9.47
2022-09-17T23:48:44.815Z,9.40
2022-09-17T23:51:12.348Z,10.27
2022-09-17T23:53:39.941Z,9.50
2022-09-17T23:56:13.110Z,6.50
2022-09-17T23:58:40.678Z,8.50
